createdAt,value
2022-09-23T00:01:46.476Z,100961.05
2022-09-23T00:04:35.286Z,100957.04
2022-09-23T00:07:11.642Z,100953.20
2022-09-23T00:09:43.816Z,100954.22
2022-09-23T00:12:33.313Z,100954.80
2022-09-23T00:15:10.982Z,100958.05
2022-09-23T00:17:59.795Z,100955.34
2022-09-23T00:20:28.874Z,100955.98
2022-09-23T00:23:03.166Z,100960.73
2022-09-23T00:25:57.583Z,100959.60
2022-09-23T00:28:26.373Z,100957.59
2022-09-23T00:31:21.858Z,100952.70
2022-09-23T00:33:54.851Z,100952.76
2022-09-23T00:36:45.228Z,100948.58
2022-09-23T00:39:31.885Z,100946.07
2022-09-23T00:42:03.572Z,100949.77
2022-09-23T00:44:55.913Z,100948.88
2022-09-23T00:47:41.489Z,100945.80
2022-09-23T00:50:30.026Z,100953.36
2022-09-23T00:53:05.426Z,100951.55
2022-09-23T00:55:57.294Z,100952.33
2022-09-23T00:58:33.096Z,100950.54
2022-09-23T01:01:24.494Z,100953.02
2022-09-23T01:03:55.304Z,100952.66
2022-09-23T01:06:44.027Z,100950.00
2022-09-23T01:09:33.607Z,100953.38
2022-09-23T01:12:14.452Z,100950.67
2022-09-23T01:15:17.812Z,100950.91
2022-09-23T01:18:16.663Z,100948.45
2022-09-23T01:21:35.783Z,100944.53
2022-09-23T01:24:37.596Z,100941.77
2022-09-23T01:27:46.469Z,100942.77
2022-09-23T01:30:39.842Z,100942.98
2022-09-23T01:33:23.779Z,100942.36
2022-09-23T01:36:23.599Z,100940.52
2022-09-23T01:39:08.677Z,100943.48
2022-09-23T01:42:07.001Z,100945.02
2022-09-23T01:45:06.875Z,100943.55
2022-09-23T01:47:42.891Z,100942.20
2022-09-23T01:50:46.953Z,100940.41
2022-09-23T01:53:24.076Z,100938.95
2022-09-23T01:56:17.698Z,100938.30
2022-09-23T01:59:04.886Z,100939.11
2022-09-23T02:01:54.903Z,100942.11
2022-09-23T02:04:51.558Z,100940.21
2022-09-23T02:07:36.379Z,100941.98
2022-09-23T02:10:30.768Z,100941.27
2022-09-23T02:13:24.004Z,100940.59
2022-09-23T02:16:23.678Z,100932.96
2022-09-23T02:19:09.986Z,100932.46
2022-09-23T02:22:06.385Z,100935.57
2022-09-23T02:24:56.474Z,100933.27
2022-09-23T02:27:57.399Z,100932.96
2022-09-23T02:30:56.109Z,100932.34
2022-09-23T02:33:54.636Z,100937.50
2022-09-23T02:36:52.645Z,100934.00
2022-09-23T02:39:55.895Z,100936.93
2022-09-23T02:42:55.641Z,100932.66
2022-09-23T02:45:44.476Z,100930.98
2022-09-23T02:48:40.775Z,100931.98
2022-09-23T02:51:31.554Z,100934.30
2022-09-23T02:54:04.947Z,100942.27
2022-09-23T02:56:54.734Z,100941.78
2022-09-23T02:59:46.421Z,100940.88
2022-09-23T03:02:57.237Z,100939.16
2022-09-23T03:05:53.908Z,100939.30
2022-09-23T03:08:52.970Z,100939.12
2022-09-23T03:11:49.403Z,100936.16
2022-09-23T03:14:27.143Z,100937.29
2022-09-23T03:17:20.567Z,100938.43
2022-09-23T03:20:17.556Z,100936.66
2022-09-23T03:22:51.539Z,100940.30
2022-09-23T03:25:34.493Z,100936.52
2022-09-23T03:28:24.890Z,100933.17
2022-09-23T03:31:16.677Z,100936.32
2022-09-23T03:34:11.166Z,100931.80
2022-09-23T03:37:07.000Z,100937.05
2022-09-23T03:40:00.313Z,100933.77
2022-09-23T03:42:43.075Z,100930.48
2022-09-23T03:45:35.979Z,100929.54
2022-09-23T03:48:06.036Z,100928.04
2022-09-23T03:50:54.860Z,100926.84
2022-09-23T03:53:32.338Z,100923.29
2022-09-23T03:56:21.479Z,100928.31
2022-09-23T03:59:10.556Z,100928.34
2022-09-23T04:01:59.627Z,100928.44
2022-09-23T04:04:50.203Z,100931.08
2022-09-23T04:07:39.614Z,100927.18
2022-09-23T04:10:28.412Z,100929.33
2022-09-23T04:12:57.247Z,100928.17
2022-09-23T04:15:51.284Z,100924.70
2022-09-23T04:18:40.348Z,100929.19
2022-09-23T04:21:08.876Z,100928.37
2022-09-23T04:23:57.681Z,100930.80
2022-09-23T04:26:50.862Z,100928.75
2022-09-23T04:29:43.106Z,100934.39
2022-09-23T04:32:32.285Z,100935.95
2022-09-23T04:35:22.147Z,100937.10
2022-09-23T04:38:12.727Z,100936.56
2022-09-23T04:41:01.808Z,100941.05
2022-09-23T04:43:52.231Z,100941.08
2022-09-23T04:46:24.008Z,100939.52
2022-09-23T04:49:04.358Z,100938.05
2022-09-23T04:51:56.087Z,100937.30
2022-09-23T04:54:44.844Z,100934.60
2022-09-23T04:57:35.941Z,100934.33
2022-09-23T05:00:26.466Z,100932.52
2022-09-23T05:03:16.025Z,100935.73
2022-09-23T05:06:07.269Z,100937.45
2022-09-23T05:08:59.811Z,100935.49
2022-09-23T05:11:52.571Z,100932.05
2022-09-23T05:14:40.655Z,100932.36
2022-09-23T05:17:31.045Z,100931.30
2022-09-23T05:20:26.800Z,100928.69
2022-09-23T05:23:11.168Z,100928.01
2022-09-23T05:26:01.605Z,100927.85
2022-09-23T05:28:54.183Z,100929.94
2022-09-23T05:31:45.361Z,100928.05
2022-09-23T05:34:34.675Z,100929.48
2022-09-23T05:37:24.837Z,100931.31
2022-09-23T05:40:16.974Z,100931.80
2022-09-23T05:42:50.801Z,100933.13
2022-09-23T05:45:39.659Z,100936.06
2022-09-23T05:48:30.984Z,100937.98
2022-09-23T05:51:21.878Z,100941.23
2022-09-23T05:54:10.945Z,100944.73
2022-09-23T05:57:01.405Z,100943.92
2022-09-23T05:59:53.382Z,100945.23
2022-09-23T06:02:41.211Z,100942.08
2022-09-23T06:05:30.572Z,100944.75
2022-09-23T06:08:10.727Z,100945.20
2022-09-23T06:11:07.108Z,100945.92
2022-09-23T06:13:59.819Z,100944.41
2022-09-23T06:16:50.665Z,100946.42
2022-09-23T06:19:41.967Z,100942.14
2022-09-23T06:22:24.133Z,100944.81
2022-09-23T06:25:16.178Z,100947.12
2022-09-23T06:28:15.785Z,100950.48
2022-09-23T06:31:12.819Z,100950.80
2022-09-23T06:34:10.475Z,100945.64
2022-09-23T06:37:10.555Z,100949.02
2022-09-23T06:39:54.717Z,100947.48
2022-09-23T06:42:42.716Z,100948.19
2022-09-23T06:45:31.539Z,100946.34
2022-09-23T06:48:25.238Z,100947.24
2022-09-23T06:51:18.738Z,100945.77
2022-09-23T06:54:08.525Z,100944.20
2022-09-23T06:56:57.448Z,100944.94
2022-09-23T06:59:49.841Z,100946.59
2022-09-23T07:02:31.612Z,100945.83
2022-09-23T07:05:03.724Z,100951.66
2022-09-23T07:07:53.775Z,100949.77
2022-09-23T07:10:42.787Z,100950.48
2022-09-23T07:13:41.600Z,100953.94
2022-09-23T07:16:33.363Z,100956.09
2022-09-23T07:19:02.564Z,100954.77
2022-09-23T07:21:53.966Z,100959.88
2022-09-23T07:24:23.794Z,100958.21
2022-09-23T07:27:06.828Z,100952.14
2022-09-23T07:29:55.764Z,100947.77
2022-09-23T07:32:48.768Z,100947.82
2022-09-23T07:35:41.595Z,100950.86
2022-09-23T07:38:11.395Z,100947.86
2022-09-23T07:41:04.901Z,100944.03
2022-09-23T07:43:33.568Z,100944.31
2022-09-23T07:46:23.121Z,100941.42
2022-09-23T07:49:14.043Z,100942.45
2022-09-23T07:52:04.577Z,100936.60
2022-09-23T07:54:53.994Z,100936.20
2022-09-23T07:57:34.173Z,100937.95
2022-09-23T08:00:14.976Z,100940.54
2022-09-23T08:02:56.306Z,100940.77
2022-09-23T08:05:38.291Z,100936.34
2022-09-23T08:08:28.550Z,100933.41
2022-09-23T08:11:19.726Z,100934.35
2022-09-23T08:14:08.855Z,100928.54
2022-09-23T08:16:59.660Z,100926.07
2022-09-23T08:19:49.919Z,100926.17
2022-09-23T08:22:39.234Z,100923.40
2022-09-23T08:25:32.192Z,100920.05
2022-09-23T08:28:22.987Z,100919.37
2022-09-23T08:31:13.052Z,100919.83
2022-09-23T08:33:55.702Z,100914.69
2022-09-23T08:36:36.256Z,100914.87
2022-09-23T08:39:14.095Z,100912.15
2022-09-23T08:42:17.242Z,100909.46
2022-09-23T08:44:50.924Z,100910.83
2022-09-23T08:47:26.906Z,100911.72
2022-09-23T08:50:05.218Z,100909.17
2022-09-23T08:52:52.925Z,100909.05
2022-09-23T08:55:28.227Z,100907.77
2022-09-23T08:58:25.603Z,100908.33
2022-09-23T09:01:07.014Z,100906.19
2022-09-23T09:03:51.440Z,100903.23
2022-09-23T09:06:26.581Z,100895.06
2022-09-23T09:09:00.980Z,100896.46
2022-09-23T09:11:48.539Z,100893.39
2022-09-23T09:14:36.030Z,100889.08
2022-09-23T09:17:24.257Z,100889.21
2022-09-23T09:20:08.101Z,100886.77
2022-09-23T09:23:00.071Z,100882.02
2022-09-23T09:25:45.737Z,100881.52
2022-09-23T09:28:24.029Z,100882.09
2022-09-23T09:31:28.967Z,100877.64
2022-09-23T09:34:19.965Z,100882.67
2022-09-23T09:37:15.481Z,100876.58
2022-09-23T09:39:44.394Z,100877.60
2022-09-23T09:42:20.684Z,100873.09
2022-09-23T09:44:58.216Z,100879.11
2022-09-23T09:47:56.268Z,100871.12
2022-09-23T09:50:48.788Z,100866.99
2022-09-23T09:53:37.602Z,100860.75
2022-09-23T09:56:33.228Z,100864.72
2022-09-23T09:59:28.152Z,100859.24
2022-09-23T10:02:26.473Z,100853.49
2022-09-23T10:05:31.850Z,100851.33
2022-09-23T10:08:27.770Z,100856.52
2022-09-23T10:11:03.034Z,100848.73
2022-09-23T10:13:32.712Z,100842.04
2022-09-23T10:16:22.584Z,100833.06
2022-09-23T10:19:17.327Z,100833.95
2022-09-23T10:22:18.992Z,100826.79
2022-09-23T10:25:15.800Z,100826.05
2022-09-23T10:27:47.696Z,100826.95
2022-09-23T10:30:38.082Z,100822.94
2022-09-23T10:33:27.571Z,100823.02
2022-09-23T10:36:18.034Z,100817.95
2022-09-23T10:39:27.812Z,100813.89
2022-09-23T10:42:51.223Z,100812.23
2022-09-23T10:46:04.035Z,100811.96
2022-09-23T10:49:02.416Z,100812.91
2022-09-23T10:52:06.141Z,100814.23
2022-09-23T10:54:49.542Z,100814.48
2022-09-23T10:57:54.164Z,100818.46
2022-09-23T11:00:52.891Z,100811.83
2022-09-23T11:03:59.606Z,100811.20
2022-09-23T11:07:07.596Z,100800.81
2022-09-23T11:10:35.245Z,100800.50
2022-09-23T11:13:54.628Z,100798.73
2022-09-23T11:17:03.792Z,100798.17
2022-09-23T11:20:09.525Z,100801.41
2022-09-23T11:23:29.814Z,100796.66
2022-09-23T11:26:33.589Z,100791.58
2022-09-23T11:29:24.615Z,100792.36
2022-09-23T11:32:29.917Z,100787.55
2022-09-23T11:35:20.082Z,100789.86
2022-09-23T11:38:14.910Z,100788.37
2022-09-23T11:41:13.924Z,100786.79
2022-09-23T11:44:05.114Z,100789.05
2022-09-23T11:47:03.353Z,100784.43
2022-09-23T11:49:49.720Z,100784.23
2022-09-23T11:52:28.973Z,100783.70
2022-09-23T11:55:14.429Z,100784.61
2022-09-23T11:58:04.247Z,100785.10
2022-09-23T12:01:01.434Z,100783.52
2022-09-23T12:03:51.653Z,100783.47
2022-09-23T12:06:46.926Z,100778.91
2022-09-23T12:09:58.955Z,100773.30
2022-09-23T12:12:59.394Z,100769.13
2022-09-23T12:15:56.436Z,100770.15
2022-09-23T12:18:56.996Z,100764.45
2022-09-23T12:22:12.285Z,100760.01
2022-09-23T12:25:18.009Z,100760.86
2022-09-23T12:27:50.867Z,100759.45
2022-09-23T12:30:46.495Z,100758.81
2022-09-23T12:33:27.940Z,100755.35
2022-09-23T12:36:09.048Z,100752.64
2022-09-23T12:38:46.556Z,100751.21
2022-09-23T12:41:38.627Z,100749.98
2022-09-23T12:44:36.241Z,100750.25
2022-09-23T12:47:40.933Z,100751.51
2022-09-23T12:50:54.340Z,100750.47
2022-09-23T12:53:58.376Z,100744.08
2022-09-23T12:57:01.674Z,100743.48
2022-09-23T13:00:14.463Z,100739.30
2022-09-23T13:03:22.077Z,100735.27
2022-09-23T13:06:20.853Z,100733.08
2022-09-23T13:09:15.741Z,100727.10
2022-09-23T13:11:58.389Z,100727.56
2022-09-23T13:14:53.979Z,100722.98
2022-09-23T13:17:34.181Z,100720.70
2022-09-23T13:20:37.848Z,100717.02
2022-09-23T13:23:28.059Z,100722.20
2022-09-23T13:26:18.637Z,100720.84
2022-09-23T13:29:16.331Z,100718.90
2022-09-23T13:32:11.183Z,100720.31
2022-09-23T13:35:03.757Z,100716.23
2022-09-23T13:37:57.837Z,100710.94
2022-09-23T13:40:48.979Z,100704.39
2022-09-23T13:43:42.106Z,100707.23
2022-09-23T13:46:40.296Z,100702.22
2022-09-23T13:49:34.795Z,100703.69
2022-09-23T13:55:38.213Z,100697.17
2022-09-23T13:58:18.963Z,100696.43
2022-09-23T14:01:10.423Z,100696.75
2022-09-23T14:04:00.537Z,100684.95
2022-09-23T14:06:49.845Z,100685.85
2022-09-23T14:09:43.532Z,100683.38
2022-09-23T14:12:32.495Z,100686.27
2022-09-23T14:15:22.638Z,100683.63
2022-09-23T14:18:05.752Z,100685.31
2022-09-23T14:20:56.262Z,100684.15
2022-09-23T14:23:45.842Z,100682.45
2022-09-23T14:26:26.805Z,100679.64
2022-09-23T14:29:19.724Z,100678.20
2022-09-23T14:32:17.582Z,100681.45
2022-09-23T14:35:19.765Z,100680.95
2022-09-23T14:38:30.634Z,100673.96
2022-09-23T14:41:25.174Z,100676.83
2022-09-23T14:44:22.486Z,100677.27
2022-09-23T14:47:01.349Z,100679.17
2022-09-23T14:50:07.478Z,100676.91
2022-09-23T14:52:56.265Z,100672.20
2022-09-23T14:55:46.648Z,100668.77
2022-09-23T14:58:28.104Z,100667.67
2022-09-23T15:01:41.554Z,100667.84
2022-09-23T15:04:35.034Z,100669.77
2022-09-23T15:07:23.989Z,100669.11
2022-09-23T15:10:23.015Z,100667.64
2022-09-23T15:13:05.279Z,100659.27
2022-09-23T15:15:59.508Z,100661.55
2022-09-23T15:18:40.648Z,100659.94
2022-09-23T15:21:40.463Z,100660.48
2022-09-23T15:24:42.621Z,100656.27
2022-09-23T15:27:30.318Z,100653.83
2022-09-23T15:30:19.117Z,100654.27
2022-09-23T15:32:59.853Z,100652.08
2022-09-23T15:35:53.307Z,100653.75
2022-09-23T15:38:43.676Z,100654.12
2022-09-23T15:41:16.739Z,100653.14
2022-09-23T15:44:16.926Z,100654.88
2022-09-23T15:47:18.568Z,100657.23
2022-09-23T15:49:54.160Z,100662.34
2022-09-23T15:52:44.492Z,100659.63
2022-09-23T15:55:36.521Z,100659.21
2022-09-23T15:58:27.191Z,100658.21
2022-09-23T16:01:23.876Z,100659.45
2022-09-23T16:04:13.752Z,100662.11
2022-09-23T16:06:47.770Z,100660.27
2022-09-23T16:09:17.678Z,100659.14
2022-09-23T16:12:11.719Z,100661.11
2022-09-23T16:15:02.109Z,100662.86
2022-09-23T16:17:54.906Z,100664.23
2022-09-23T16:20:46.939Z,100666.67
2022-09-23T16:23:41.356Z,100667.41
2022-09-23T16:26:32.551Z,100663.77
2022-09-23T16:29:21.590Z,100669.16
2022-09-23T16:32:17.834Z,100671.45
2022-09-23T16:35:01.812Z,100670.98
2022-09-23T16:37:38.181Z,100672.69
2022-09-23T16:40:10.363Z,100671.64
2022-09-23T16:43:01.628Z,100668.21
2022-09-23T16:45:30.616Z,100667.45
2022-09-23T16:48:03.161Z,100664.98
2022-09-23T16:50:33.055Z,100664.10
2022-09-23T16:53:22.530Z,100665.64
2022-09-23T16:56:12.659Z,100661.52
2022-09-23T16:59:01.422Z,100661.45
2022-09-23T17:02:07.637Z,100659.04
2022-09-23T17:04:57.059Z,100660.38
2022-09-23T17:07:25.860Z,100658.79
2022-09-23T17:10:18.007Z,100657.38
2022-09-23T17:13:08.195Z,100653.29
2022-09-23T17:15:57.268Z,100656.92
2022-09-23T17:18:27.053Z,100657.20
2022-09-23T17:21:15.963Z,100658.36
2022-09-23T17:23:47.359Z,100658.63
2022-09-23T17:26:16.967Z,100661.37
2022-09-23T17:28:45.594Z,100659.14
2022-09-23T17:31:24.300Z,100662.01
2022-09-23T17:34:13.498Z,100662.09
2022-09-23T17:37:02.548Z,100664.10
2022-09-23T17:39:41.908Z,100665.11
2022-09-23T17:42:31.555Z,100662.65
2022-09-23T17:45:02.306Z,100664.87
2022-09-23T17:47:56.038Z,100668.58
2022-09-23T17:50:34.671Z,100668.09
2022-09-23T17:53:20.315Z,100671.23
2022-09-23T17:56:14.618Z,100669.17
2022-09-23T17:59:11.486Z,100667.92
2022-09-23T18:01:49.354Z,100671.56
2022-09-23T18:04:38.479Z,100666.98
2022-09-23T18:07:27.654Z,100670.56
2022-09-23T18:10:16.885Z,100668.45
2022-09-23T18:12:48.505Z,100667.09
2022-09-23T18:15:28.634Z,100667.87
2022-09-23T18:17:57.432Z,100667.59
2022-09-23T18:20:28.946Z,100671.64
2022-09-23T18:22:57.548Z,100672.93
2022-09-23T18:25:46.850Z,100671.76
2022-09-23T18:28:15.260Z,100669.98
2022-09-23T18:31:03.151Z,100665.33
2022-09-23T18:33:44.737Z,100667.40
2022-09-23T18:36:13.906Z,100668.46
2022-09-23T18:38:42.995Z,100668.43
2022-09-23T18:41:36.148Z,100672.48
2022-09-23T18:44:22.886Z,100668.16
2022-09-23T18:47:33.319Z,100674.31
2022-09-23T18:50:29.426Z,100674.94
2022-09-23T18:53:20.803Z,100676.19
2022-09-23T18:56:07.815Z,100680.09
2022-09-23T18:58:37.144Z,100683.70
2022-09-23T19:01:27.367Z,100680.60
2022-09-23T19:04:21.467Z,100681.97
2022-09-23T19:07:17.157Z,100679.61
2022-09-23T19:10:20.701Z,100680.86
2022-09-23T19:13:07.449Z,100682.33
2022-09-23T19:16:07.697Z,100680.16
2022-09-23T19:18:58.727Z,100681.37
2022-09-23T19:21:54.667Z,100677.73
2022-09-23T19:24:46.539Z,100679.79
2022-09-23T19:27:36.020Z,100679.55
2022-09-23T19:30:15.537Z,100677.75
2022-09-23T19:33:05.722Z,100680.84
2022-09-23T19:35:58.146Z,100685.71
2022-09-23T19:38:38.884Z,100689.34
2022-09-23T19:41:32.959Z,100693.94
2022-09-23T19:44:25.749Z,100692.09
2022-09-23T19:47:17.015Z,100693.51
2022-09-23T19:50:10.488Z,100692.38
2022-09-23T19:52:39.106Z,100689.77
2022-09-23T19:55:28.808Z,100685.75
2022-09-23T19:58:00.305Z,100683.96
2022-09-23T20:00:29.839Z,100687.34
2022-09-23T20:02:59.264Z,100683.11
2022-09-23T20:05:56.678Z,100685.00
2022-09-23T20:08:32.471Z,100683.06
2022-09-23T20:11:09.715Z,100690.81
2022-09-23T20:13:39.907Z,100689.04
2022-09-23T20:16:13.764Z,100682.91
2022-09-23T20:18:49.328Z,100679.02
2022-09-23T20:21:25.414Z,100676.36
2022-09-23T20:23:57.473Z,100674.15
2022-09-23T20:26:49.644Z,100674.72
2022-09-23T20:29:32.028Z,100672.85
2022-09-23T20:32:01.641Z,100673.98
2022-09-23T20:34:52.107Z,100671.46
2022-09-23T20:37:41.897Z,100666.94
2022-09-23T20:40:22.531Z,100665.44
2022-09-23T20:42:51.731Z,100663.52
2022-09-23T20:45:21.338Z,100662.02
2022-09-23T20:47:55.320Z,100657.38
2022-09-23T20:50:23.918Z,100656.66
2022-09-23T20:52:55.913Z,100657.38
2022-09-23T20:55:29.418Z,100654.09
2022-09-23T20:58:28.636Z,100652.95
2022-09-23T21:01:11.185Z,100656.20
2022-09-23T21:03:55.380Z,100658.33
2022-09-23T21:06:25.716Z,100662.55
2022-09-23T21:08:56.805Z,100665.31
2022-09-23T21:11:50.170Z,100664.45
2022-09-23T21:14:22.056Z,100665.45
2022-09-23T21:16:54.953Z,100662.73
2022-09-23T21:19:44.135Z,100663.95
2022-09-23T21:22:15.418Z,100664.59
2022-09-23T21:27:54.565Z,100662.60
2022-09-23T21:30:38.059Z,100664.10
2022-09-23T21:33:08.658Z,100671.73
2022-09-23T21:36:03.782Z,100672.58
2022-09-23T21:38:36.802Z,100674.77
2022-09-23T21:41:25.650Z,100676.48
2022-09-23T21:44:14.609Z,100670.99
2022-09-23T21:46:51.546Z,100670.36
2022-09-23T21:49:41.632Z,100673.27
2022-09-23T21:52:34.375Z,100675.50
2022-09-23T21:55:27.842Z,100673.19
2022-09-23T21:57:58.906Z,100677.40
2022-09-23T22:00:27.451Z,100679.30
2022-09-23T22:02:57.335Z,100677.08
2022-09-23T22:05:26.820Z,100680.20
2022-09-23T22:07:58.802Z,100684.48
2022-09-23T22:10:50.395Z,100680.89
2022-09-23T22:13:39.281Z,100682.80
2022-09-23T22:16:28.576Z,100681.83
2022-09-23T22:19:17.482Z,100679.36
2022-09-23T22:21:53.120Z,100678.82
2022-09-23T22:24:44.470Z,100674.75
2022-09-23T22:27:57.206Z,100669.54
2022-09-23T22:31:04.051Z,100668.09
2022-09-23T22:33:52.983Z,100665.03
2022-09-23T22:36:41.858Z,100666.09
2022-09-23T22:39:31.328Z,100662.16
2022-09-23T22:42:13.051Z,100660.40
2022-09-23T22:45:03.475Z,100658.88
2022-09-23T22:47:39.118Z,100662.98
2022-09-23T22:50:13.440Z,100665.51
2022-09-23T22:52:52.070Z,100656.30
2022-09-23T22:55:42.180Z,100655.36
2022-09-23T22:58:33.030Z,100651.80
2022-09-23T23:01:23.219Z,100642.93
2022-09-23T23:04:03.409Z,100646.92
2022-09-23T23:06:52.516Z,100647.18
2022-09-23T23:09:42.159Z,100645.63
2022-09-23T23:12:16.324Z,100644.97
2022-09-23T23:14:49.553Z,100640.34
2022-09-23T23:17:32.945Z,100638.52
2022-09-23T23:20:11.611Z,100634.75
2022-09-23T23:22:40.512Z,100633.50
2022-09-23T23:25:20.559Z,100632.08
2022-09-23T23:27:49.491Z,100635.75
2022-09-23T23:30:37.423Z,100633.56
2022-09-23T23:33:26.469Z,100631.21
2022-09-23T23:36:08.154Z,100633.98
2022-09-23T23:38:43.485Z,100630.23
2022-09-23T23:41:29.482Z,100627.80
2022-09-23T23:44:00.100Z,100624.80
2022-09-23T23:46:41.277Z,100622.52
2022-09-23T23:49:30.564Z,100623.45
2022-09-23T23:51:59.343Z,100621.77
2022-09-23T23:54:27.930Z,100623.02
2022-09-23T23:57:17.924Z,100626.58
